Time;durP1;ratioP1;P1;durP2;ratioP2;P2;SDS_P1;SDS_P2;PMS_P1;PMS_P2;Temp;Humidity;BMP_temperature;BMP_pressure;BME280_temperature;BME280_humidity;BME280_pressure;Samples;Min_cycle;Max_cycle;Signal;HPM_P1;HPM_P2
2022/06/25 00:00:56;;;;;;;33.45;25.70;;;17.60;99.90;;;;;;5068994;28;20051;-80
2022/06/25 00:03:43;;;;;;;36.92;28.77;;;17.60;99.90;;;;;;5067998;28;20053;-80
2022/06/25 00:06:29;;;;;;;44.80;32.65;;;17.50;99.90;;;;;;5050600;28;20156;-80
2022/06/25 00:09:15;;;;;;;38.67;29.42;;;17.50;99.90;;;;;;5037897;28;20130;-80
2022/06/25 00:15:08;;;;;;;42.40;29.67;;;17.50;99.90;;;;;;5069206;28;20491;-81
2022/06/25 00:17:54;;;;;;;39.25;30.25;;;17.40;99.90;;;;;;5069506;28;20049;-80
2022/06/25 00:20:41;;;;;;;39.53;30.35;;;17.40;99.90;;;;;;5050968;28;20109;-80
2022/06/25 00:23:27;;;;;;;42.33;32.47;;;17.40;99.90;;;;;;5051215;28;20122;-80
2022/06/25 00:26:13;;;;;;;45.85;33.40;;;17.40;99.90;;;;;;5069118;28;20049;-80
2022/06/25 00:28:59;;;;;;;51.63;37.33;;;17.40;99.90;;;;;;5070014;28;20083;-81
2022/06/25 00:31:46;;;;;;;49.42;36.35;;;17.40;99.90;;;;;;5070009;28;20049;-81
2022/06/25 00:34:32;;;;;;;45.22;35.20;;;17.50;99.90;;;;;;5050879;28;20496;-81
2022/06/25 00:37:37;;;;;;;48.40;35.95;;;17.40;99.90;;;;;;5055261;28;20056;-81
2022/06/25 00:40:23;;;;;;;47.50;35.85;;;17.50;99.90;;;;;;5051092;28;20063;-81
2022/06/25 00:43:09;;;;;;;48.20;35.20;;;17.40;99.90;;;;;;5053953;28;20056;-81
2022/06/25 00:45:55;;;;;;;46.08;34.05;;;17.40;99.90;;;;;;5073251;28;20134;-81
2022/06/25 00:48:41;;;;;;;41.03;33.15;;;17.40;99.90;;;;;;5055930;28;20070;-80
2022/06/25 00:51:31;;;;;;;45.70;34.50;;;17.40;99.90;;;;;;5041529;28;20102;-81
2022/06/25 00:54:19;;;;;;;49.67;35.70;;;17.40;99.90;;;;;;5072316;28;20048;-81
2022/06/25 00:57:08;;;;;;;47.42;34.08;;;17.30;99.90;;;;;;5054668;28;20127;-81
2022/06/25 01:00:00;;;;;;;55.15;38.92;;;17.40;99.90;;;;;;5043122;28;20059;-81
2022/06/25 01:02:47;;;;;;;40.15;32.33;;;17.40;99.90;;;;;;5073070;28;20135;-81
2022/06/25 01:05:33;;;;;;;51.55;38.13;;;17.40;99.90;;;;;;5073487;28;20063;-80
2022/06/25 01:08:19;;;;;;;46.70;36.08;;;17.40;99.90;;;;;;5055397;28;20048;-81
2022/06/25 01:11:07;;;;;;;44.60;33.75;;;17.40;99.90;;;;;;5072998;28;20400;-81
2022/06/25 01:13:54;;;;;;;49.50;36.78;;;17.40;99.90;;;;;;5072916;28;20043;-81
2022/06/25 01:16:40;;;;;;;46.58;34.67;;;17.40;99.90;;;;;;5055772;28;20573;-80
2022/06/25 01:19:26;;;;;;;47.00;35.88;;;17.40;99.90;;;;;;5040672;28;20087;-80
2022/06/25 01:22:12;;;;;;;47.42;35.15;;;17.40;99.90;;;;;;5058518;28;20382;-81
2022/06/25 01:24:59;;;;;;;42.88;32.10;;;17.30;99.90;;;;;;5073932;28;20056;-80
2022/06/25 01:27:47;;;;;;;52.95;38.88;;;17.30;99.90;;;;;;5054959;28;20060;-80
2022/06/25 01:30:34;;;;;;;46.17;35.70;;;17.30;99.90;;;;;;5057597;28;20048;-81
2022/06/25 01:33:20;;;;;;;48.22;36.42;;;17.30;99.90;;;;;;5072218;28;20064;-82
2022/06/25 01:36:08;;;;;;;46.72;36.40;;;17.20;99.90;;;;;;5072563;28;20399;-81
2022/06/25 01:38:54;;;;;;;44.92;34.45;;;17.20;99.90;;;;;;5072167;28;20052;-81
2022/06/25 01:41:40;;;;;;;43.60;35.45;;;17.20;99.90;;;;;;5071281;28;20087;-81
2022/06/25 01:44:29;;;;;;;44.63;34.50;;;17.10;99.90;;;;;;5071858;28;20044;-81
2022/06/25 01:47:15;;;;;;;44.97;33.88;;;17.10;99.90;;;;;;5072097;28;20044;-80
2022/06/25 01:50:02;;;;;;;48.35;35.78;;;17.10;99.90;;;;;;5071162;28;20052;-81
2022/06/25 01:52:52;;;;;;;42.95;34.53;;;17.10;99.90;;;;;;5057757;28;20518;-81
2022/06/25 01:55:38;;;;;;;41.88;32.38;;;17.10;99.90;;;;;;5056912;28;20092;-81
2022/06/25 01:58:24;;;;;;;43.65;32.13;;;17.00;99.90;;;;;;5053587;28;20063;-80
2022/06/25 02:01:11;;;;;;;44.22;34.20;;;17.00;99.90;;;;;;5071890;28;20091;-81
2022/06/25 02:03:57;;;;;;;39.05;31.55;;;16.90;99.90;;;;;;5070161;28;20527;-80
2022/06/25 02:06:43;;;;;;;41.85;33.40;;;16.90;99.90;;;;;;5071735;28;20496;-81
2022/06/25 02:09:29;;;;;;;43.10;32.85;;;16.90;99.90;;;;;;5039801;28;20053;-81
2022/06/25 02:12:15;;;;;;;41.70;33.35;;;16.90;99.90;;;;;;5056459;28;20049;-80
2022/06/25 02:15:02;;;;;;;45.25;35.85;;;16.80;99.90;;;;;;5071247;28;20041;-81
2022/06/25 02:17:48;;;;;;;49.92;38.03;;;16.80;99.90;;;;;;5070493;28;20045;-79
2022/06/25 02:20:34;;;;;;;43.70;34.40;;;16.80;99.90;;;;;;5053369;28;20468;-81
2022/06/25 02:23:22;;;;;;;45.20;33.95;;;16.80;99.90;;;;;;5053247;28;20067;-80
2022/06/25 02:26:08;;;;;;;45.78;33.10;;;16.80;99.90;;;;;;5053224;28;20404;-81
2022/06/25 02:28:54;;;;;;;48.78;34.75;;;16.70;99.90;;;;;;5039351;28;20048;-81
2022/06/25 02:31:40;;;;;;;42.08;31.80;;;16.70;99.90;;;;;;5071165;28;20131;-79
2022/06/25 02:34:26;;;;;;;40.55;32.72;;;16.70;99.90;;;;;;5056337;28;20463;-80
2022/06/25 02:37:13;;;;;;;44.28;33.30;;;16.70;99.90;;;;;;5053935;28;20076;-80
2022/06/25 02:39:59;;;;;;;42.75;32.15;;;16.70;99.90;;;;;;5053240;28;20061;-80
2022/06/25 02:42:45;;;;;;;41.88;33.33;;;16.60;99.90;;;;;;5070477;28;20052;-81
2022/06/25 02:45:31;;;;;;;42.33;32.47;;;16.70;99.90;;;;;;5038711;28;20370;-81
2022/06/25 02:48:17;;;;;;;42.70;32.35;;;16.60;99.90;;;;;;5038982;28;20060;-80
2022/06/25 02:51:03;;;;;;;45.55;31.83;;;16.60;99.90;;;;;;5039463;28;20056;-81
2022/06/25 02:53:49;;;;;;;40.45;32.80;;;16.60;99.90;;;;;;5071035;28;20048;-81
2022/06/25 02:59:40;;;;;;;39.55;30.05;;;16.60;99.90;;;;;;5037588;28;20555;-81
2022/06/25 03:02:26;;;;;;;37.17;27.73;;;16.60;99.90;;;;;;5051300;28;20046;-81
2022/06/25 03:05:12;;;;;;;43.03;29.67;;;16.60;99.90;;;;;;5049865;28;20195;-80
2022/06/25 03:07:58;;;;;;;33.88;27.15;;;16.60;99.90;;;;;;5049888;28;20084;-80
2022/06/25 03:10:45;;;;;;;36.22;27.45;;;16.60;99.90;;;;;;5049535;28;20400;-80
2022/06/25 03:13:34;;;;;;;34.42;27.42;;;16.60;99.90;;;;;;5047848;28;20497;-81
2022/06/25 03:16:20;;;;;;;32.35;26.27;;;16.60;99.90;;;;;;5048800;28;20064;-81
2022/06/25 03:19:06;;;;;;;30.35;24.33;;;16.60;99.90;;;;;;5047581;28;20063;-81
2022/06/25 03:21:52;;;;;;;29.02;24.27;;;16.60;99.90;;;;;;5035506;28;20057;-80
2022/06/25 03:24:38;;;;;;;31.83;26.20;;;16.60;99.90;;;;;;5049636;28;20566;-81
2022/06/25 03:27:24;;;;;;;29.95;24.80;;;16.60;99.90;;;;;;5049677;28;20045;-81
2022/06/25 03:30:11;;;;;;;28.88;23.92;;;16.60;99.90;;;;;;5049568;28;20060;-81
2022/06/25 03:32:57;;;;;;;29.60;23.80;;;16.60;99.90;;;;;;5048647;28;20052;-80
2022/06/25 03:35:43;;;;;;;33.00;25.65;;;16.60;99.90;;;;;;5050721;28;20451;-80
2022/06/25 03:38:29;;;;;;;31.25;23.83;;;16.70;99.90;;;;;;5049472;28;20136;-80
2022/06/25 03:41:33;;;;;;;31.55;23.92;;;16.70;99.90;;;;;;5034600;28;20519;-80
2022/06/25 03:44:19;;;;;;;26.45;22.40;;;16.60;99.90;;;;;;5051593;28;20060;-81
2022/06/25 03:47:05;;;;;;;28.65;24.02;;;16.60;99.90;;;;;;5050321;28;20124;-80
2022/06/25 03:49:53;;;;;;;30.98;23.30;;;16.60;99.90;;;;;;5049363;28;20063;-80
2022/06/25 03:52:39;;;;;;;30.98;23.63;;;16.60;99.90;;;;;;5050405;28;20417;-80
2022/06/25 03:55:25;;;;;;;26.70;22.33;;;16.60;99.90;;;;;;5049118;28;20049;-80
2022/06/25 03:58:12;;;;;;;29.52;23.20;;;16.60;99.90;;;;;;5049934;28;20070;-80
2022/06/25 04:00:58;;;;;;;26.80;22.60;;;16.60;99.90;;;;;;5049216;28;20053;-80
2022/06/25 04:03:44;;;;;;;31.38;23.38;;;16.60;99.90;;;;;;5062425;28;20048;-80
2022/06/25 04:06:30;;;;;;;27.85;22.00;;;16.60;99.90;;;;;;5047426;28;20540;-80
2022/06/25 04:09:16;;;;;;;25.90;21.35;;;16.60;99.90;;;;;;5048281;28;20052;-81
2022/06/25 04:12:03;;;;;;;29.85;22.65;;;16.60;99.90;;;;;;5049016;28;20052;-81
2022/06/25 04:14:49;;;;;;;28.00;22.73;;;16.60;99.90;;;;;;5049959;28;20081;-81
2022/06/25 04:17:35;;;;;;;27.42;22.80;;;16.70;99.90;;;;;;5048287;28;20049;-81
2022/06/25 04:20:21;;;;;;;28.20;22.58;;;16.70;99.90;;;;;;5047428;28;20059;-81
2022/06/25 04:23:07;;;;;;;25.75;21.33;;;16.70;99.90;;;;;;5050036;28;20106;-80
2022/06/25 04:25:54;;;;;;;26.80;21.10;;;16.70;99.90;;;;;;5049244;28;20044;-82
2022/06/25 04:31:45;;;;;;;25.63;19.33;;;16.80;99.90;;;;;;5049180;28;20131;-80
2022/06/25 04:34:31;;;;;;;24.42;19.83;;;16.90;99.90;;;;;;5050170;28;20428;-81
2022/06/25 04:37:17;;;;;;;27.75;21.17;;;16.90;99.90;;;;;;5049805;28;20119;-80
2022/06/25 04:40:04;;;;;;;26.25;20.70;;;17.00;99.90;;;;;;5047994;28;20571;-81
2022/06/25 04:42:50;;;;;;;24.73;20.02;;;17.00;99.90;;;;;;5048015;28;20057;-80
2022/06/25 04:45:36;;;;;;;23.85;18.60;;;17.10;99.90;;;;;;5047813;28;20135;-80
2022/06/25 04:48:22;;;;;;;24.08;18.63;;;17.10;99.90;;;;;;5048576;28;20088;-80
2022/06/25 04:51:08;;;;;;;20.98;18.10;;;17.10;99.90;;;;;;5048881;28;20060;-80
2022/06/25 04:53:55;;;;;;;20.65;17.63;;;17.20;99.90;;;;;;5047903;28;20076;-81
2022/06/25 04:56:42;;;;;;;20.92;17.88;;;17.20;99.90;;;;;;5048729;28;20051;-81
2022/06/25 04:59:28;;;;;;;20.15;17.00;;;17.30;99.90;;;;;;5047524;28;20099;-80
2022/06/25 05:02:14;;;;;;;24.73;17.58;;;17.30;99.90;;;;;;5048372;28;20052;-80
2022/06/25 05:05:00;;;;;;;21.48;18.42;;;17.40;99.90;;;;;;5048799;28;20053;-80
2022/06/25 05:07:46;;;;;;;24.38;18.05;;;17.40;99.90;;;;;;5035264;28;20057;-80
2022/06/25 05:10:33;;;;;;;19.05;16.05;;;17.50;99.90;;;;;;5049459;28;20053;-80
2022/06/25 05:13:19;;;;;;;18.45;15.43;;;17.60;99.90;;;;;;5048994;28;20119;-80
2022/06/25 05:16:05;;;;;;;18.60;15.25;;;17.60;99.90;;;;;;5050079;28;20116;-80
2022/06/25 05:18:52;;;;;;;19.48;14.50;;;17.80;99.90;;;;;;5049422;28;20053;-81
2022/06/25 05:21:38;;;;;;;22.63;14.88;;;17.90;99.90;;;;;;5050369;28;20465;-81
2022/06/25 05:24:24;;;;;;;17.15;14.13;;;17.90;99.90;;;;;;5047376;28;20048;-80
2022/06/25 05:27:10;;;;;;;17.50;13.27;;;18.00;99.90;;;;;;5049867;28;20049;-81
2022/06/25 05:29:57;;;;;;;19.20;13.73;;;18.00;99.90;;;;;;5050962;28;20048;-80
2022/06/25 05:32:43;;;;;;;17.75;12.85;;;18.10;99.90;;;;;;5053306;28;20394;-80
2022/06/25 05:35:31;;;;;;;18.23;13.38;;;18.20;99.90;;;;;;5052515;28;20059;-81
2022/06/25 05:38:17;;;;;;;14.45;12.43;;;18.40;99.90;;;;;;5051540;28;20063;-80
2022/06/25 05:41:08;;;;;;;14.70;11.55;;;18.50;99.90;;;;;;5051839;28;20129;-80
2022/06/25 05:43:54;;;;;;;16.52;11.95;;;18.60;99.90;;;;;;5053163;28;20060;-80
2022/06/25 05:46:40;;;;;;;12.98;11.18;;;18.70;99.90;;;;;;5052724;28;20064;-81
2022/06/25 05:49:26;;;;;;;13.20;11.55;;;18.70;99.90;;;;;;5052739;28;20462;-80
2022/06/25 05:52:12;;;;;;;16.55;11.88;;;18.80;99.90;;;;;;5051653;28;20416;-81
2022/06/25 05:54:58;;;;;;;13.85;11.85;;;18.90;99.90;;;;;;5050706;28;20060;-81
2022/06/25 05:57:45;;;;;;;14.23;11.15;;;19.00;99.90;;;;;;5051326;28;20477;-82
2022/06/25 06:00:32;;;;;;;13.95;11.05;;;19.10;99.90;;;;;;5037051;28;20552;-82
2022/06/25 06:03:18;;;;;;;13.52;10.57;;;19.20;99.90;;;;;;5052229;28;20057;-81
2022/06/25 06:06:04;;;;;;;15.20;11.13;;;19.40;99.90;;;;;;5050553;28;20523;-81
2022/06/25 06:08:50;;;;;;;13.18;10.93;;;19.50;99.90;;;;;;5050992;28;20056;-81
2022/06/25 06:11:36;;;;;;;14.45;10.07;;;19.60;99.90;;;;;;5049659;28;20497;-81
2022/06/25 06:14:23;;;;;;;13.65;10.27;;;19.70;99.90;;;;;;5049447;28;20475;-81
2022/06/25 06:17:09;;;;;;;12.45;9.18;;;19.90;99.90;;;;;;5050411;28;20049;-81
2022/06/25 06:19:55;;;;;;;15.85;9.95;;;20.00;99.90;;;;;;5053232;28;20053;-80
2022/06/25 06:22:42;;;;;;;12.90;9.90;;;20.20;99.90;;;;;;5051772;28;20049;-81
2022/06/25 06:25:28;;;;;;;14.23;9.50;;;20.30;99.90;;;;;;5064003;28;20045;-80
2022/06/25 06:28:14;;;;;;;11.68;7.97;;;20.50;99.90;;;;;;5051438;28;20037;-81
2022/06/25 06:31:00;;;;;;;10.60;7.07;;;20.70;99.90;;;;;;5050110;28;20114;-81
2022/06/25 06:33:46;;;;;;;12.15;7.43;;;20.80;99.90;;;;;;5050476;28;20773;-81
2022/06/25 06:36:33;;;;;;;13.98;8.57;;;20.90;99.90;;;;;;5049659;28;20044;-80
2022/06/25 06:39:19;;;;;;;13.45;8.15;;;21.00;99.90;;;;;;5049582;28;20111;-80
2022/06/25 06:42:05;;;;;;;11.55;6.78;;;21.00;99.90;;;;;;5051344;28;20580;-81
2022/06/25 06:44:51;;;;;;;10.45;6.95;;;21.10;99.90;;;;;;5051565;28;20428;-81
2022/06/25 06:47:37;;;;;;;13.73;7.13;;;21.10;99.90;;;;;;5050408;28;20049;-80
2022/06/25 06:50:23;;;;;;;13.02;6.63;;;21.10;99.90;;;;;;5049635;28;20497;-81
2022/06/25 06:53:09;;;;;;;11.13;6.95;;;21.20;99.90;;;;;;5049741;28;20053;-82
2022/06/25 06:55:55;;;;;;;11.40;6.10;;;21.40;99.90;;;;;;5051772;28;20044;-81
2022/06/25 06:58:42;;;;;;;13.35;6.05;;;21.40;99.90;;;;;;5066992;28;20155;-81
2022/06/25 07:01:28;;;;;;;10.10;6.40;;;21.50;99.90;;;;;;5051790;28;20096;-81
2022/06/25 07:04:14;;;;;;;10.95;6.28;;;21.60;99.90;;;;;;5048580;28;20118;-81
2022/06/25 07:07:00;;;;;;;11.52;5.82;;;21.60;99.90;;;;;;5049174;28;20060;-81
2022/06/25 07:09:46;;;;;;;12.52;6.25;;;21.70;99.90;;;;;;5051966;28;20098;-81
2022/06/25 07:12:32;;;;;;;11.52;6.22;;;21.80;99.90;;;;;;5049708;28;20386;-82
2022/06/25 07:15:19;;;;;;;9.38;5.38;;;21.90;99.90;;;;;;5050821;28;20106;-82
2022/06/25 07:18:06;;;;;;;9.57;5.72;;;21.90;99.90;;;;;;5050517;28;20505;-81
2022/06/25 07:20:52;;;;;;;8.55;5.60;;;22.00;99.90;;;;;;5049612;28;20549;-81
2022/06/25 07:23:38;;;;;;;9.20;6.22;;;22.30;99.90;;;;;;5049052;28;20115;-83
2022/06/25 07:26:24;;;;;;;9.75;5.25;;;22.50;99.90;;;;;;5051082;28;20053;-82
2022/06/25 07:29:11;;;;;;;8.27;4.97;;;22.60;99.90;;;;;;5051834;28;20087;-80
2022/06/25 07:31:57;;;;;;;9.40;4.57;;;22.60;99.90;;;;;;5036487;28;20044;-82
2022/06/25 07:34:43;;;;;;;8.38;4.22;;;22.70;99.90;;;;;;5036316;28;20099;-81
2022/06/25 07:37:29;;;;;;;8.15;4.40;;;22.70;99.90;;;;;;5050852;28;20179;-82
2022/06/25 07:40:16;;;;;;;9.85;4.65;;;22.80;99.90;;;;;;5047599;28;20512;-82
2022/06/25 07:43:02;;;;;;;9.90;5.13;;;22.90;99.90;;;;;;5049913;28;20599;-81
2022/06/25 07:45:49;;;;;;;8.02;5.18;;;22.90;99.90;;;;;;5050791;28;20477;-81
2022/06/25 07:48:35;;;;;;;10.20;5.38;;;22.80;99.90;;;;;;5062174;28;20059;-81
2022/06/25 07:54:33;;;;;;;8.18;4.97;;;23.00;99.90;;;;;;5048636;28;20049;-82
2022/06/25 07:57:19;;;;;;;9.35;5.63;;;23.10;99.90;;;;;;5050241;28;20041;-80
2022/06/25 08:00:06;;;;;;;9.43;4.95;;;23.20;99.90;;;;;;5049823;28;20056;-81
2022/06/25 08:02:52;;;;;;;7.15;4.78;;;23.40;99.90;;;;;;5061936;28;20057;-81
2022/06/25 08:05:38;;;;;;;8.20;4.85;;;23.40;99.90;;;;;;5049758;28;20426;-81
2022/06/25 08:08:25;;;;;;;10.73;5.20;;;23.50;99.90;;;;;;5049316;28;20392;-81
2022/06/25 08:11:11;;;;;;;7.65;4.57;;;23.40;99.90;;;;;;5048960;28;20056;-81
2022/06/25 08:13:58;;;;;;;12.32;5.28;;;23.60;99.90;;;;;;5047577;28;20052;-81
2022/06/25 08:16:44;;;;;;;7.50;4.70;;;23.90;99.90;;;;;;5048406;28;20469;-81
2022/06/25 08:19:30;;;;;;;7.85;4.65;;;24.00;99.90;;;;;;5065450;28;20126;-81
2022/06/25 08:22:16;;;;;;;10.07;4.90;;;24.10;99.90;;;;;;5065155;28;20092;-81
2022/06/25 08:25:03;;;;;;;9.57;5.10;;;24.00;99.90;;;;;;5048264;28;20497;-81
2022/06/25 08:27:51;;;;;;;8.45;3.83;;;24.30;99.90;;;;;;5049465;28;20041;-80
2022/06/25 08:30:41;;;;;;;9.18;5.10;;;24.60;99.90;;;;;;5049693;28;20082;-81
2022/06/25 08:33:27;;;;;;;12.35;3.85;;;24.30;99.90;;;;;;5049390;28;20057;-83
2022/06/25 08:36:13;;;;;;;6.60;3.65;;;24.20;99.90;;;;;;5047121;28;20135;-80
2022/06/25 08:39:00;;;;;;;9.45;3.63;;;23.90;99.90;;;;;;5049747;28;20052;-81
2022/06/25 08:41:46;;;;;;;7.97;3.30;;;23.90;99.90;;;;;;5050045;28;20049;-80
2022/06/25 08:44:33;;;;;;;5.35;3.08;;;23.90;99.90;;;;;;5051100;28;20048;-81
2022/06/25 08:47:19;;;;;;;7.75;2.20;;;23.90;99.90;;;;;;5048999;28;20136;-81
2022/06/25 08:50:06;;;;;;;5.45;2.30;;;24.00;99.90;;;;;;5047243;28;20515;-81
2022/06/25 08:52:55;;;;;;;7.10;3.20;;;24.30;99.90;;;;;;5047891;28;20433;-81
2022/06/25 08:55:42;;;;;;;6.10;2.75;;;24.50;99.90;;;;;;5048097;28;20068;-81
2022/06/25 08:58:28;;;;;;;6.80;2.42;;;24.80;99.90;;;;;;5034342;28;20493;-81
2022/06/25 09:01:15;;;;;;;5.63;2.53;;;25.10;99.90;;;;;;5049153;28;20517;-80
2022/06/25 09:04:01;;;;;;;6.63;2.83;;;25.20;99.90;;;;;;5051044;28;20063;-80
2022/06/25 09:06:50;;;;;;;8.63;2.53;;;25.30;99.90;;;;;;5054545;28;20060;-81
2022/06/25 09:09:36;;;;;;;5.43;2.40;;;25.30;99.90;;;;;;5052702;28;20041;-80
2022/06/25 09:12:22;;;;;;;7.32;2.78;;;25.00;99.90;;;;;;5051477;28;20056;-80
2022/06/25 09:15:18;;;;;;;5.43;2.53;;;24.60;99.90;;;;;;5051861;28;20489;-80
2022/06/25 09:18:13;;;;;;;6.72;2.78;;;24.00;99.90;;;;;;5051555;28;20106;-80
2022/06/25 09:21:05;;;;;;;7.53;2.50;;;23.80;99.90;;;;;;5052400;28;20052;-80
2022/06/25 09:24:00;;;;;;;5.53;2.40;;;23.90;99.90;;;;;;5053323;28;20052;-80
2022/06/25 09:26:50;;;;;;;;;;;24.50;99.90;;;;;;5051788;28;20106;-80
2022/06/25 09:29:45;;;;;;;6.35;3.15;;;24.70;99.90;;;;;;5051826;28;19921;-80
2022/06/25 09:32:45;;;;;;;6.82;3.30;;;24.40;99.90;;;;;;5068895;28;20382;-81
2022/06/25 09:35:35;;;;;;;7.18;3.22;;;24.70;99.90;;;;;;5052771;28;20445;-81
2022/06/25 09:38:22;;;;;;;9.20;3.80;;;25.20;99.90;;;;;;5053094;28;20052;-80
2022/06/25 09:41:09;;;;;;;7.65;2.88;;;25.50;99.90;;;;;;5052036;28;20090;-80
2022/06/25 09:43:55;;;;;;;7.40;2.67;;;25.90;99.90;;;;;;5053944;28;20045;-81
2022/06/25 09:46:58;;;;;;;7.20;2.70;;;26.30;99.60;;;;;;5053422;28;20063;-80
2022/06/25 09:49:44;;;;;;;7.80;3.00;;;26.30;98.60;;;;;;5052731;28;20524;-81
2022/06/25 09:52:31;;;;;;;6.03;2.85;;;26.30;98.40;;;;;;5053356;28;20103;-81
2022/06/25 09:55:19;;;;;;;5.68;2.30;;;26.40;97.70;;;;;;5050864;28;20056;-80
2022/06/25 09:58:05;;;;;;;5.80;3.00;;;26.30;97.60;;;;;;5051892;28;20045;-80
2022/06/25 10:00:53;;;;;;;4.80;2.00;;;26.50;98.30;;;;;;5050638;28;20072;-81
2022/06/25 10:03:40;;;;;;;6.10;2.28;;;26.70;98.70;;;;;;5051380;28;20396;-80
2022/06/25 10:06:26;;;;;;;5.70;2.53;;;27.20;97.90;;;;;;5052856;28;20052;-81
2022/06/25 10:09:16;;;;;;;6.07;2.35;;;27.40;97.60;;;;;;5036379;28;20135;-80
2022/06/25 10:12:03;;;;;;;7.15;2.78;;;27.40;96.00;;;;;;5050492;28;20045;-82
2022/06/25 10:14:49;;;;;;;7.28;2.72;;;27.70;95.70;;;;;;5050750;28;20053;-81
2022/06/25 10:17:36;;;;;;;7.35;2.33;;;27.70;95.70;;;;;;5049673;28;20049;-80
2022/06/25 10:20:23;;;;;;;6.20;2.13;;;27.60;95.90;;;;;;5049810;28;20518;-80
2022/06/25 10:23:12;;;;;;;7.20;2.28;;;27.60;95.80;;;;;;5067564;28;20088;-80
2022/06/25 10:25:58;;;;;;;6.88;2.58;;;27.30;95.80;;;;;;5037312;28;20084;-80
2022/06/25 10:28:45;;;;;;;5.50;3.13;;;27.30;95.70;;;;;;5052920;28;20128;-80
2022/06/25 10:31:31;;;;;;;6.10;2.13;;;27.00;95.40;;;;;;5051941;28;20076;-80
2022/06/25 10:34:18;;;;;;;4.78;2.42;;;26.90;95.80;;;;;;5049144;28;20048;-80
2022/06/25 10:37:04;;;;;;;7.25;1.60;;;26.50;96.30;;;;;;5048248;28;20492;-81
2022/06/25 10:39:54;;;;;;;4.47;2.00;;;26.40;96.40;;;;;;5050171;28;20526;-81
2022/06/25 10:45:46;;;;;;;5.32;1.65;;;26.30;97.60;;;;;;5049749;28;20122;-82
2022/06/25 10:48:32;;;;;;;3.75;1.67;;;26.20;97.90;;;;;;5048706;28;20167;-82
2022/06/25 10:51:31;;;;;;;3.47;1.80;;;26.20;97.70;;;;;;5050281;28;20048;-82
2022/06/25 10:54:26;;;;;;;7.30;2.38;;;26.20;97.70;;;;;;5050152;28;20420;-82
2022/06/25 10:57:12;;;;;;;;;;;26.10;98.20;;;;;;5048954;28;20504;-81
2022/06/25 11:00:03;;;;;;;7.72;2.72;;;26.40;97.10;;;;;;5051499;28;20007;-82
2022/06/25 11:02:53;;;;;;;6.40;2.42;;;27.00;96.90;;;;;;5052270;28;20051;-81
2022/06/25 11:05:47;;;;;;;5.13;1.95;;;27.20;97.00;;;;;;5052895;28;20045;-81
2022/06/25 11:08:36;;;;;;;6.13;2.20;;;27.00;95.80;;;;;;5050592;28;20084;-81
2022/06/25 11:11:28;;;;;;;4.63;1.90;;;27.10;96.10;;;;;;5049134;28;20053;-81
2022/06/25 11:14:24;;;;;;;3.85;1.70;;;27.00;95.30;;;;;;5050653;28;20060;-81
2022/06/25 11:17:10;;;;;;;3.17;1.60;;;26.70;96.30;;;;;;5050206;28;20049;-81
2022/06/25 11:20:08;;;;;;;3.63;1.70;;;26.30;96.80;;;;;;5050351;28;20048;-81
2022/06/25 11:22:54;;;;;;;3.95;1.88;;;26.10;96.60;;;;;;5062507;28;20383;-78
2022/06/25 11:29:00;;;;;;;5.38;1.90;;;25.80;97.20;;;;;;5049722;28;20107;-80
2022/06/25 11:31:47;;;;;;;5.18;1.63;;;25.80;98.10;;;;;;5062928;28;20478;-80
2022/06/25 11:34:34;;;;;;;6.10;1.55;;;25.80;97.80;;;;;;5049366;28;20404;-80
2022/06/25 11:37:21;;;;;;;6.07;1.25;;;25.70;98.70;;;;;;5047822;28;20106;-79
2022/06/25 11:40:16;;;;;;;6.03;1.67;;;25.00;99.90;;;;;;5049906;28;20052;-81
2022/06/25 11:43:06;;;;;;;6.53;1.10;;;24.70;99.90;;;;;;5050144;28;20554;-79
2022/06/25 11:45:56;;;;;;;4.10;1.35;;;24.50;99.90;;;;;;5049599;28;20053;-79
2022/06/25 11:48:42;;;;;;;6.70;1.65;;;24.40;99.90;;;;;;5048168;28;20129;-81
2022/06/25 11:51:29;;;;;;;4.50;1.38;;;24.70;99.90;;;;;;5050555;28;20113;-81
2022/06/25 11:54:19;;;;;;;4.30;1.20;;;24.80;99.90;;;;;;5051663;28;20135;-80
2022/06/25 11:57:07;;;;;;;7.78;1.77;;;24.70;99.90;;;;;;5050660;28;20576;-80
2022/06/25 11:59:55;;;;;;;5.60;1.40;;;24.50;99.90;;;;;;5048720;28;20140;-82
2022/06/25 12:02:43;;;;;;;6.85;1.48;;;24.50;99.90;;;;;;5067305;28;20083;-82
2022/06/25 12:05:29;;;;;;;6.53;1.95;;;24.70;99.90;;;;;;5053105;28;20114;-81
2022/06/25 12:08:15;;;;;;;8.05;1.65;;;24.70;99.90;;;;;;5048446;28;20049;-80
2022/06/25 12:11:02;;;;;;;6.70;1.85;;;24.70;99.90;;;;;;5048988;28;20052;-81
2022/06/25 12:13:50;;;;;;;5.28;1.40;;;24.80;99.90;;;;;;5062068;28;20049;-81
2022/06/25 12:16:47;;;;;;;5.32;1.80;;;24.70;99.90;;;;;;5048057;28;20179;-80
2022/06/25 12:19:53;;;;;;;7.80;1.80;;;24.70;99.90;;;;;;5049834;28;20084;-81
2022/06/25 12:22:49;;;;;;;6.95;2.35;;;24.80;99.90;;;;;;5049971;28;20049;-80
2022/06/25 12:25:35;;;;;;;4.45;1.70;;;24.80;99.90;;;;;;5066359;28;20064;-81
2022/06/25 12:28:35;;;;;;;4.15;1.52;;;25.10;99.90;;;;;;5051769;28;20045;-81
2022/06/25 12:31:22;;;;;;;5.53;1.77;;;25.70;99.90;;;;;;5063125;28;20049;-80
2022/06/25 12:34:08;;;;;;;5.20;1.58;;;25.30;99.90;;;;;;5048299;28;20055;-79
2022/06/25 12:36:56;;;;;;;7.32;2.33;;;25.10;99.90;;;;;;5048612;28;20099;-80
2022/06/25 12:39:45;;;;;;;5.45;2.20;;;24.60;99.90;;;;;;5054373;28;20053;-80
2022/06/25 12:42:34;;;;;;;6.15;2.38;;;24.10;99.90;;;;;;5052507;28;20053;-80
2022/06/25 12:45:21;;;;;;;4.80;1.90;;;23.70;99.90;;;;;;5051792;28;20060;-80
2022/06/25 12:48:09;;;;;;;6.55;1.98;;;23.50;99.90;;;;;;5053194;28;20584;-80
2022/06/25 12:51:10;;;;;;;7.97;2.70;;;23.40;99.90;;;;;;5052602;28;20412;-80
2022/06/25 12:53:56;;;;;;;7.50;2.85;;;23.30;99.90;;;;;;5051012;28;20053;-79
2022/06/25 12:56:43;;;;;;;7.85;2.70;;;23.00;99.90;;;;;;5050989;28;20049;-80
2022/06/25 12:59:29;;;;;;;6.90;2.60;;;22.90;99.90;;;;;;5037565;28;20493;-80
2022/06/25 13:02:16;;;;;;;7.90;2.47;;;22.70;99.90;;;;;;5052597;28;20053;-80
2022/06/25 13:05:02;;;;;;;7.90;3.05;;;22.60;99.90;;;;;;5037626;28;20076;-80
2022/06/25 13:07:48;;;;;;;6.45;3.10;;;22.50;99.90;;;;;;5038050;28;20049;-80
2022/06/25 13:10:34;;;;;;;8.85;3.45;;;22.30;99.90;;;;;;5050243;28;20052;-80
2022/06/25 13:13:20;;;;;;;6.30;2.80;;;22.30;99.90;;;;;;5069023;28;20160;-80
2022/06/25 13:16:06;;;;;;;8.18;3.58;;;22.20;99.90;;;;;;5051459;28;20513;-80
2022/06/25 13:18:52;;;;;;;5.57;2.80;;;22.10;99.90;;;;;;5054965;28;20055;-81
2022/06/25 13:21:38;;;;;;;11.02;3.67;;;22.10;99.90;;;;;;5053049;28;20049;-81
2022/06/25 13:24:26;;;;;;;7.20;3.45;;;22.00;99.90;;;;;;5051254;28;20060;-80
2022/06/25 13:27:12;;;;;;;9.90;3.65;;;22.00;99.90;;;;;;5053005;28;20572;-79
2022/06/25 13:29:58;;;;;;;7.85;3.10;;;22.00;99.90;;;;;;5052900;28;20045;-80
2022/06/25 13:32:44;;;;;;;8.15;3.15;;;22.10;99.90;;;;;;5052032;28;20048;-80
2022/06/25 13:35:30;;;;;;;6.97;2.42;;;22.30;99.90;;;;;;5068405;28;20485;-80
2022/06/25 13:38:16;;;;;;;7.55;3.17;;;22.40;99.90;;;;;;5037234;28;20049;-80
2022/06/25 13:41:04;;;;;;;9.93;3.03;;;22.40;99.90;;;;;;5038150;28;20049;-80
2022/06/25 13:43:54;;;;;;;8.40;2.35;;;22.40;99.90;;;;;;5051779;28;20143;-81
2022/06/25 13:46:40;;;;;;;12.77;3.58;;;22.40;99.90;;;;;;5036791;28;20052;-81
2022/06/25 13:49:26;;;;;;;11.48;2.88;;;22.30;99.90;;;;;;5063556;28;20076;-81
2022/06/25 13:52:12;;;;;;;7.70;2.70;;;22.30;99.90;;;;;;5050286;28;20060;-81
2022/06/25 13:54:58;;;;;;;10.73;2.90;;;22.50;99.90;;;;;;5051158;28;20085;-81
2022/06/25 13:57:44;;;;;;;11.80;3.47;;;22.80;99.90;;;;;;5050281;28;20174;-81
2022/06/25 14:00:31;;;;;;;10.43;3.47;;;22.90;99.90;;;;;;5037484;28;20060;-81
2022/06/25 14:03:17;;;;;;;10.65;2.80;;;23.40;99.90;;;;;;5067829;28;20380;-81
2022/06/25 14:06:03;;;;;;;10.40;2.95;;;24.60;99.90;;;;;;5052764;28;20049;-81
2022/06/25 14:08:49;;;;;;;8.57;2.90;;;24.70;99.90;;;;;;5052834;28;20144;-81
2022/06/25 14:11:36;;;;;;;14.68;3.42;;;25.40;99.90;;;;;;5051915;28;20052;-81
2022/06/25 14:14:23;;;;;;;9.23;3.47;;;25.30;99.90;;;;;;5051249;28;20048;-81
2022/06/25 14:17:09;;;;;;;9.35;3.47;;;24.70;99.90;;;;;;5051867;28;20053;-82
2022/06/25 14:19:55;;;;;;;12.15;3.60;;;24.10;99.90;;;;;;5052523;28;20048;-81
2022/06/25 14:22:41;;;;;;;9.85;3.20;;;23.90;99.90;;;;;;5051785;28;20053;-81
2022/06/25 14:25:28;;;;;;;9.18;2.88;;;23.60;99.90;;;;;;5051181;28;20416;-81
2022/06/25 14:28:16;;;;;;;9.35;3.30;;;23.30;99.90;;;;;;5067335;28;20099;-81
2022/06/25 14:31:02;;;;;;;11.93;3.70;;;23.20;99.90;;;;;;5051966;28;20063;-81
2022/06/25 14:33:48;;;;;;;15.82;2.83;;;22.90;99.90;;;;;;5048693;28;20040;-81
2022/06/25 14:42:44;;;;;;;12.35;3.50;;;22.40;99.90;;;;;;5051199;28;20778;-80
2022/06/25 14:45:30;;;;;;;12.35;3.00;;;22.20;99.90;;;;;;5049358;28;20079;-81